Time;durP1;ratioP1;P1;durP2;ratioP2;P2;SDS_P1;SDS_P2;PMS_P1;PMS_P2;Temp;Humidity;BMP_temperature;BMP_pressure;BME280_temperature;BME280_humidity;BME280_pressure;Samples;Min_cycle;Max_cycle;Signal;HPM_P1;HPM_P2
2023/07/05 00:00:33;;;;;;;5.07;1.92;;;;;;;26.26;100.00;99924.16;5037318;28;20732;-68
2023/07/05 00:03:00;;;;;;;3.80;1.88;;;;;;;26.25;100.00;99910.97;5072405;28;20579;-68
2023/07/05 00:05:27;;;;;;;4.97;1.98;;;;;;;26.44;100.00;99932.97;5072364;28;20335;-69
2023/07/05 00:07:54;;;;;;;4.78;1.95;;;;;;;26.45;100.00;99926.72;5036658;28;20207;-68
2023/07/05 00:10:21;;;;;;;3.88;1.80;;;;;;;26.40;100.00;99910.16;5072384;28;20203;-69
2023/07/05 00:12:49;;;;;;;5.45;2.00;;;;;;;26.23;100.00;99892.44;5061406;28;20202;-69
2023/07/05 00:15:16;;;;;;;5.85;2.00;;;;;;;26.01;100.00;99908.59;5072100;28;20203;-68
2023/07/05 00:17:43;;;;;;;4.88;1.88;;;;;;;26.09;100.00;99910.84;5072004;28;20195;-68
2023/07/05 00:20:10;;;;;;;5.75;2.22;;;;;;;26.13;100.00;99918.59;5071970;28;20230;-68
2023/07/05 00:22:37;;;;;;;4.95;2.08;;;;;;;26.10;100.00;99918.75;5071715;28;20207;-69
2023/07/05 00:25:04;;;;;;;4.90;1.88;;;;;;;26.19;100.00;99925.41;5034746;28;20653;-69
2023/07/05 00:27:31;;;;;;;6.47;2.28;;;;;;;26.24;100.00;99926.06;5071388;28;20259;-69
2023/07/05 00:29:59;;;;;;;6.28;2.22;;;;;;;26.38;100.00;99928.00;5071828;28;20772;-69
2023/07/05 00:32:26;;;;;;;6.18;2.22;;;;;;;26.28;100.00;99918.78;5036605;28;20221;-70
2023/07/05 00:34:53;;;;;;;3.17;1.70;;;;;;;26.32;100.00;99912.38;5024677;28;20195;-68
2023/07/05 00:37:19;;;;;;;5.72;2.15;;;;;;;26.39;100.00;99909.31;5052072;28;20203;-67
2023/07/05 00:39:46;;;;;;;5.15;2.10;;;;;;;26.41;100.00;99911.88;5049635;28;20199;-69
2023/07/05 00:42:13;;;;;;;5.75;2.25;;;;;;;26.22;100.00;99916.44;5051854;28;20644;-69
2023/07/05 00:44:40;;;;;;;5.75;2.08;;;;;;;26.23;100.00;99903.06;5051652;28;20195;-68
2023/07/05 00:47:18;;;;;;;5.20;1.98;;;;;;;26.23;100.00;99878.28;5063984;28;20608;-68
2023/07/05 00:49:45;;;;;;;5.80;2.15;;;;;;;26.31;100.00;99900.00;5071668;28;20195;-68
2023/07/05 00:52:14;;;;;;;5.72;2.08;;;;;;;26.23;100.00;99904.84;5071627;28;20194;-69
2023/07/05 00:54:44;;;;;;;6.72;2.30;;;;;;;25.99;100.00;99913.13;5071452;28;20203;-68
2023/07/05 00:57:15;;;;;;;5.75;2.10;;;;;;;25.81;100.00;99908.75;5071571;28;20610;-68
2023/07/05 00:59:47;;;;;;;5.82;2.22;;;;;;;25.74;100.00;99882.56;5071183;28;20406;-68
2023/07/05 01:02:16;;;;;;;5.40;1.98;;;;;;;25.84;100.00;99895.31;5071306;28;20331;-69
2023/07/05 01:04:44;;;;;;;5.35;2.10;;;;;;;25.71;100.00;99899.53;5071497;28;20203;-68
2023/07/05 01:07:10;;;;;;;5.82;2.05;;;;;;;25.57;100.00;99886.94;5071291;28;20191;-68
2023/07/05 01:09:38;;;;;;;6.07;2.22;;;;;;;25.57;100.00;99886.06;5071058;28;20198;-68
2023/07/05 01:12:16;;;;;;;6.50;2.28;;;;;;;25.58;100.00;99887.75;5071031;28;20207;-69
2023/07/05 01:14:54;;;;;;;5.75;2.40;;;;;;;25.55;100.00;99894.09;5070429;28;20198;-68
2023/07/05 01:17:30;;;;;;;5.82;2.00;;;;;;;25.45;100.00;99873.34;5070925;28;20203;-69
2023/07/05 01:20:17;;;;;;;5.28;1.98;;;;;;;25.48;100.00;99897.94;5070964;28;20641;-68
2023/07/05 01:23:05;;;;;;;6.03;2.17;;;;;;;25.43;100.00;99902.66;5070137;28;20640;-68
2023/07/05 01:26:00;;;;;;;7.43;2.65;;;;;;;25.30;100.00;99896.19;5008784;28;20663;-69
2023/07/05 01:28:50;;;;;;;6.13;2.05;;;;;;;25.38;100.00;99911.75;4931103;29;20262;-69
2023/07/05 01:31:51;;;;;;;3.92;1.63;;;;;;;25.37;100.00;99902.06;4917374;29;20203;-69
2023/07/05 01:34:28;;;;;;;5.03;2.10;;;;;;;25.16;100.00;99896.00;4912443;29;20212;-69
2023/07/05 01:36:55;;;;;;;5.97;2.08;;;;;;;24.97;100.00;99889.84;4912210;29;20214;-69
2023/07/05 01:39:22;;;;;;;6.80;4.50;;;;;;;25.01;100.00;99891.41;4912349;29;20216;-69
2023/07/05 01:41:49;;;;;;;6.72;2.47;;;;;;;25.02;100.00;99894.00;4912034;29;20232;-68
2023/07/05 01:44:18;;;;;;;6.05;2.25;;;;;;;25.08;100.00;99888.38;4913092;29;20596;-68
2023/07/05 01:46:52;;;;;;;6.18;2.15;;;;;;;25.15;100.00;99883.66;4912439;29;20577;-68
2023/07/05 01:49:41;;;;;;;5.88;1.95;;;;;;;25.23;100.00;99893.91;4912008;29;20620;-69
2023/07/05 01:52:12;;;;;;;6.20;2.50;;;;;;;25.27;100.00;99887.50;4929385;29;20658;-69
2023/07/05 01:54:47;;;;;;;5.95;2.17;;;;;;;25.25;100.00;99894.69;4925813;29;20689;-68
2023/07/05 01:57:18;;;;;;;4.63;2.10;;;;;;;25.10;100.00;99891.00;4921789;29;20641;-68
2023/07/05 01:59:55;;;;;;;5.82;2.08;;;;;;;24.92;100.00;99898.03;4930848;29;20246;-69
2023/07/05 02:02:27;;;;;;;4.20;1.85;;;;;;;24.88;100.00;99895.56;4957869;28;20818;-69
2023/07/05 02:04:55;;;;;;;6.32;2.13;;;;;;;24.94;100.00;99903.22;4997888;28;20212;-69
2023/07/05 02:07:26;;;;;;;8.60;2.88;;;;;;;25.03;100.00;99906.34;5050666;28;20257;-68
2023/07/05 02:09:52;;;;;;;6.00;2.20;;;;;;;24.86;100.00;99892.16;5057316;28;20582;-69
2023/07/05 02:12:19;;;;;;;5.38;1.88;;;;;;;24.39;100.00;99870.41;5070358;28;20666;-68
2023/07/05 02:14:46;;;;;;;6.88;2.20;;;;;;;24.43;100.00;99906.44;5070154;28;20715;-68
2023/07/05 02:17:14;;;;;;;3.75;1.65;;;;;;;24.38;100.00;99905.78;5070317;28;20214;-69
2023/07/05 02:19:42;;;;;;;5.65;2.20;;;;;;;24.38;100.00;99889.88;5070239;28;20366;-69
2023/07/05 02:22:09;;;;;;;6.13;2.15;;;;;;;24.50;100.00;99913.19;5070048;28;20685;-69
2023/07/05 02:24:35;;;;;;;5.45;2.10;;;;;;;24.36;100.00;99889.97;5070130;28;20198;-69
2023/07/05 02:27:02;;;;;;;6.07;2.05;;;;;;;24.48;100.00;99899.13;5070092;28;20696;-69
2023/07/05 02:29:30;;;;;;;5.63;2.03;;;;;;;24.65;100.00;99913.34;5069915;28;20244;-69
2023/07/05 02:31:57;;;;;;;5.50;2.03;;;;;;;24.63;100.00;99906.41;5031849;28;20250;-69
2023/07/05 02:34:24;;;;;;;6.13;2.17;;;;;;;24.70;100.00;99907.84;5050236;28;20262;-68
2023/07/05 02:36:52;;;;;;;5.10;1.95;;;;;;;24.68;100.00;99896.47;5065768;28;20195;-68
2023/07/05 02:39:19;;;;;;;5.63;1.98;;;;;;;24.69;100.00;99907.00;5070905;28;20731;-69
2023/07/05 02:41:46;;;;;;;6.93;2.33;;;;;;;24.76;100.00;99907.56;5073768;28;20635;-69
2023/07/05 02:44:13;;;;;;;5.50;2.13;;;;;;;24.68;100.00;99907.06;5073921;28;20219;-69
2023/07/05 02:46:39;;;;;;;6.78;2.33;;;;;;;24.80;100.00;99905.63;5074013;28;20195;-69
2023/07/05 02:49:06;;;;;;;5.25;2.10;;;;;;;24.86;100.00;99919.53;5073509;28;20214;-69
2023/07/05 02:51:33;;;;;;;7.15;2.38;;;;;;;24.88;100.00;99907.03;5073845;28;20206;-69
2023/07/05 02:54:01;;;;;;;7.78;2.50;;;;;;;25.05;100.00;99908.91;5059339;28;20203;-69
2023/07/05 02:56:28;;;;;;;7.90;3.40;;;;;;;25.01;100.00;99918.81;5053664;28;20215;-68
2023/07/05 02:58:55;;;;;;;7.18;2.30;;;;;;;25.05;100.00;99909.75;5053468;28;20563;-70
2023/07/05 03:01:21;;;;;;;6.22;2.20;;;;;;;24.94;100.00;99890.84;5053677;28;20592;-69
2023/07/05 03:03:48;;;;;;;6.65;2.20;;;;;;;24.95;100.00;99889.03;5064057;28;20534;-69
2023/07/05 03:06:15;;;;;;;7.32;2.42;;;;;;;25.25;100.00;99919.47;5073399;28;20215;-69
2023/07/05 03:08:42;;;;;;;5.82;2.22;;;;;;;25.17;100.00;99911.84;5073237;28;20199;-69
2023/07/05 03:11:10;;;;;;;5.97;2.20;;;;;;;25.45;100.00;99919.34;5073264;28;20214;-69
2023/07/05 03:13:37;;;;;;;7.72;3.05;;;;;;;25.41;100.00;99903.63;5073720;28;20210;-69
2023/07/05 03:16:05;;;;;;;5.97;2.13;;;;;;;25.59;100.00;99914.25;5072869;28;20322;-69
2023/07/05 03:18:32;;;;;;;6.90;3.00;;;;;;;25.88;100.00;99907.50;5073585;28;20195;-69
2023/07/05 03:20:59;;;;;;;6.53;2.38;;;;;;;26.32;100.00;99929.19;5038089;28;20268;-69
2023/07/05 03:23:26;;;;;;;7.22;2.83;;;;;;;26.60;100.00;99939.22;5073214;28;20207;-69
2023/07/05 03:25:56;;;;;;;6.47;2.58;;;;;;;27.02;100.00;99931.63;5072694;28;20219;-69
2023/07/05 03:28:26;;;;;;;5.35;2.17;;;;;;;27.33;100.00;99929.91;5072785;28;20195;-69
2023/07/05 03:30:57;;;;;;;4.82;2.30;;;;;;;27.62;100.00;99937.16;5073406;28;20199;-69
2023/07/05 03:33:24;;;;;;;4.10;1.95;;;;;;;27.70;100.00;99924.25;5073245;28;20234;-70
2023/07/05 03:35:56;;;;;;;4.55;1.95;;;;;;;28.17;100.00;99941.97;5073105;28;20202;-69
2023/07/05 03:38:24;;;;;;;6.38;2.45;;;;;;;28.31;100.00;99947.34;5072520;28;20198;-69
2023/07/05 03:40:57;;;;;;;7.40;2.47;;;;;;;28.50;100.00;99953.28;5073109;28;20757;-69
2023/07/05 03:43:26;;;;;;;6.22;2.20;;;;;;;28.30;100.00;99951.81;5037948;28;20230;-69
2023/07/05 03:45:53;;;;;;;8.13;2.85;;;;;;;28.11;100.00;99961.00;5073021;28;20198;-69
2023/07/05 03:48:21;;;;;;;6.53;2.22;;;;;;;28.45;100.00;99956.22;5072813;28;20207;-69
2023/07/05 03:50:47;;;;;;;6.68;2.40;;;;;;;28.83;100.00;99955.69;5072481;28;20583;-69
2023/07/05 03:53:14;;;;;;;5.47;2.40;;;;;;;29.33;100.00;99956.06;5072728;28;20214;-70
2023/07/05 03:55:41;;;;;;;4.82;2.03;;;;;;;29.61;100.00;99959.66;5072739;28;20202;-69
2023/07/05 03:58:08;;;;;;;4.78;2.05;;;;;;;30.04;95.42;99957.72;5072303;28;20233;-69
2023/07/05 04:00:36;;;;;;;5.22;2.20;;;;;;;30.32;92.65;99955.69;5072155;28;20195;-69
2023/07/05 04:03:03;;;;;;;5.35;2.17;;;;;;;30.55;91.17;99954.16;5071833;28;20222;-69
2023/07/05 04:05:30;;;;;;;6.25;2.17;;;;;;;30.78;88.56;99961.47;5072494;28;20205;-69
2023/07/05 04:07:57;;;;;;;5.15;2.25;;;;;;;30.86;86.45;99961.75;5071845;28;20206;-69
2023/07/05 04:10:23;;;;;;;5.10;2.22;;;;;;;30.91;84.53;99961.44;5072496;28;20206;-69
2023/07/05 04:12:50;;;;;;;5.15;2.60;;;;;;;31.29;83.92;99945.31;5072510;28;20214;-69
2023/07/05 04:15:17;;;;;;;5.25;2.10;;;;;;;31.95;80.40;99952.94;5072461;28;20237;-69
2023/07/05 04:17:45;;;;;;;5.80;2.83;;;;;;;32.41;77.39;99961.03;5072419;28;20202;-71
2023/07/05 04:20:13;;;;;;;7.78;2.42;;;;;;;32.31;75.15;99954.69;5071588;28;20673;-70
2023/07/05 04:22:41;;;;;;;6.78;2.13;;;;;;;32.42;75.57;99965.44;5053139;28;20233;-71
2023/07/05 04:25:09;;;;;;;5.28;2.00;;;;;;;32.55;73.84;99952.78;5053432;28;20206;-69
2023/07/05 04:27:36;;;;;;;6.60;2.13;;;;;;;33.01;74.04;99959.91;5071957;28;20209;-70
2023/07/05 04:30:04;;;;;;;7.07;2.33;;;;;;;33.32;70.11;99941.22;5071431;28;20259;-70
2023/07/05 04:32:31;;;;;;;5.28;1.92;;;;;;;33.70;67.14;99951.59;5053312;28;20260;-73
2023/07/05 04:34:59;;;;;;;3.80;1.83;;;;;;;33.89;65.14;99945.50;5069324;28;20202;-71
2023/07/05 04:37:26;;;;;;;5.95;2.25;;;;;;;33.66;64.73;99954.66;5068562;28;20653;-71
2023/07/05 04:39:53;;;;;;;1.60;1.50;;;;;;;33.89;63.83;99957.13;5068234;28;20629;-71
2023/07/05 04:42:19;;;;;;;3.53;2.08;;;;;;;33.87;64.24;99953.72;5071147;28;20221;-71
2023/07/05 04:44:46;;;;;;;3.30;1.88;;;;;;;34.06;65.54;99949.50;5071113;28;20206;-71
2023/07/05 04:47:13;;;;;;;3.42;1.90;;;;;;;34.08;64.94;99952.88;5027474;28;20194;-71
2023/07/05 04:49:39;;;;;;;3.00;1.65;;;;;;;34.05;64.63;99945.06;5070848;28;20692;-70
2023/07/05 04:52:09;;;;;;;4.07;2.05;;;;;;;34.05;65.76;99961.22;5068059;28;20202;-71
2023/07/05 04:54:36;;;;;;;3.03;1.63;;;;;;;34.15;65.01;99952.28;5052584;28;20256;-71
2023/07/05 04:57:02;;;;;;;4.57;2.20;;;;;;;34.02;64.95;99945.34;5033310;28;20241;-71
2023/07/05 04:59:30;;;;;;;4.57;2.08;;;;;;;34.20;62.81;99938.44;5064181;28;20238;-69
2023/07/05 05:01:57;;;;;;;2.53;1.17;;;;;;;34.66;62.71;99955.06;5056318;28;20310;-69
2023/07/05 05:04:23;;;;;;;6.88;2.60;;;;;;;33.80;65.21;99947.13;5063454;28;20194;-70
2023/07/05 05:06:50;;;;;;;3.35;1.80;;;;;;;33.52;67.53;99949.50;5068466;28;20202;-69
2023/07/05 05:09:18;;;;;;;5.15;2.10;;;;;;;34.19;65.80;99955.56;5069867;28;20201;-73
2023/07/05 05:11:45;;;;;;;4.25;1.92;;;;;;;34.27;62.74;99927.00;5070865;28;20202;-73
2023/07/05 05:14:12;;;;;;;4.18;1.85;;;;;;;35.15;60.83;99951.63;5028609;28;20221;-72
2023/07/05 05:16:38;;;;;;;6.70;2.45;;;;;;;35.19;60.98;99963.00;5070872;28;20206;-72
2023/07/05 05:19:05;;;;;;;4.25;1.75;;;;;;;35.32;58.02;99956.38;5047315;28;20199;-74
2023/07/05 05:21:32;;;;;;;6.53;2.58;;;;;;;35.89;56.58;99964.75;5069569;28;20202;-72
2023/07/05 05:23:59;;;;;;;3.97;1.75;;;;;;;35.94;54.74;99966.03;5063754;28;20376;-74
2023/07/05 05:26:27;;;;;;;3.75;1.75;;;;;;;36.51;54.32;99972.41;5052467;28;20256;-75
2023/07/05 05:28:54;;;;;;;5.30;2.08;;;;;;;36.35;53.54;99972.16;5070625;28;20206;-75
2023/07/05 05:31:21;;;;;;;5.38;2.33;;;;;;;36.49;53.24;99972.56;5070713;28;20202;-74
2023/07/05 05:33:47;;;;;;;4.35;1.92;;;;;;;36.37;53.17;99967.47;5059207;28;20293;-74
2023/07/05 05:36:15;;;;;;;4.70;1.85;;;;;;;36.38;53.29;99967.31;5050384;28;20231;-77
2023/07/05 05:38:42;;;;;;;4.93;1.90;;;;;;;36.34;54.41;99965.91;5057782;28;20218;-77
2023/07/05 05:41:10;;;;;;;4.53;1.90;;;;;;;35.84;55.01;99962.47;5058227;28;20202;-76
2023/07/05 05:43:39;;;;;;;7.35;2.58;;;;;;;35.25;57.64;99976.78;5016780;28;20228;-75
2023/07/05 05:46:07;;;;;;;5.13;2.20;;;;;;;34.93;59.16;99969.78;5054028;28;20210;-76
2023/07/05 05:48:34;;;;;;;4.70;1.92;;;;;;;34.33;61.76;99977.66;5053648;28;20199;-76
2023/07/05 05:51:01;;;;;;;4.25;1.80;;;;;;;34.62;62.37;99985.06;5058871;28;20195;-75
2023/07/05 05:53:28;;;;;;;7.50;2.80;;;;;;;34.28;63.31;99985.25;5056022;28;20313;-75
2023/07/05 05:55:57;;;;;;;5.68;1.98;;;;;;;34.31;64.02;99959.91;5031795;28;20203;-76
2023/07/05 05:58:24;;;;;;;5.57;2.05;;;;;;;34.43;64.58;99976.84;5058495;28;20313;-76
2023/07/05 06:00:53;;;;;;;4.60;1.80;;;;;;;34.87;62.10;99981.13;5050363;28;20214;-76
2023/07/05 06:03:19;;;;;;;4.93;2.15;;;;;;;35.07;61.02;99985.63;5067827;28;20615;-76
2023/07/05 06:05:46;;;;;;;4.28;1.88;;;;;;;34.59;62.95;99980.81;5070402;28;20213;-76
2023/07/05 06:08:13;;;;;;;4.20;1.85;;;;;;;34.23;64.83;99976.72;5070575;28;20571;-71
2023/07/05 06:10:40;;;;;;;4.22;1.90;;;;;;;33.71;67.73;99964.03;5066484;28;20209;-71
2023/07/05 06:13:06;;;;;;;5.03;1.88;;;;;;;34.01;69.22;99981.31;5060511;28;20619;-71
2023/07/05 06:15:34;;;;;;;6.18;2.17;;;;;;;34.23;66.44;99990.19;5072168;28;20618;-71
2023/07/05 06:18:02;;;;;;;4.88;2.13;;;;;;;34.29;65.57;99983.41;5054609;28;20651;-70
2023/07/05 06:20:33;;;;;;;6.10;3.42;;;;;;;33.65;68.44;99967.22;5074781;28;20209;-70
2023/07/05 06:23:02;;;;;;;5.30;2.10;;;;;;;33.72;69.53;99981.88;5074488;28;20218;-70
2023/07/05 06:25:29;;;;;;;6.18;2.33;;;;;;;33.48;70.08;99978.50;5074750;28;20194;-69
2023/07/05 06:27:56;;;;;;;5.35;2.05;;;;;;;32.98;71.81;99989.72;5074522;28;20206;-69
2023/07/05 06:30:23;;;;;;;4.80;2.03;;;;;;;32.74;73.53;99993.38;5074451;28;20225;-69
2023/07/05 06:32:50;;;;;;;5.38;2.15;;;;;;;32.42;76.91;99992.28;5074279;28;20221;-69
2023/07/05 06:35:21;;;;;;;5.40;2.10;;;;;;;32.75;75.61;99987.00;5074092;28;20194;-70
2023/07/05 06:37:47;;;;;;;5.00;1.98;;;;;;;32.55;77.91;99976.94;5073981;28;20206;-70
2023/07/05 06:40:14;;;;;;;5.25;1.98;;;;;;;32.89;75.91;99981.41;5073927;28;20209;-70
2023/07/05 06:42:41;;;;;;;6.30;2.30;;;;;;;32.85;75.99;99976.41;5038729;28;20648;-70
2023/07/05 06:45:09;;;;;;;4.88;1.98;;;;;;;32.72;76.85;99981.88;5073920;28;20195;-70
2023/07/05 06:47:37;;;;;;;2.00;1.70;;;;;;;32.26;78.45;99975.63;5073767;28;20194;-70
2023/07/05 06:50:08;;;;;;;3.08;2.00;;;;;;;32.23;78.96;99983.94;5073739;28;20613;-70
2023/07/05 06:52:37;;;;;;;3.33;1.80;;;;;;;32.10;79.71;99983.16;5073883;28;20214;-69
2023/07/05 06:55:04;;;;;;;4.05;1.85;;;;;;;31.74;81.45;99968.81;5073822;28;20190;-69
2023/07/05 06:57:30;;;;;;;5.32;2.30;;;;;;;31.62;82.61;99985.78;5073784;28;20198;-70
2023/07/05 06:59:57;;;;;;;5.25;2.05;;;;;;;31.38;83.42;99983.06;5073659;28;20268;-71
2023/07/05 07:02:24;;;;;;;2.40;1.40;;;;;;;31.22;84.69;99984.25;5073466;28;20229;-70
2023/07/05 07:04:51;;;;;;;3.58;1.70;;;;;;;31.22;84.90;99993.16;5073513;28;20296;-70
2023/07/05 07:07:18;;;;;;;4.18;1.80;;;;;;;31.50;84.72;99992.00;5038468;28;20194;-71
2023/07/05 07:09:48;;;;;;;4.78;2.10;;;;;;;31.54;83.41;100004.25;5073417;28;20237;-71
2023/07/05 07:12:15;;;;;;;4.43;1.92;;;;;;;31.47;84.49;99997.59;5073470;28;20206;-72
2023/07/05 07:14:42;;;;;;;5.53;2.03;;;;;;;31.60;84.69;100002.97;5073325;28;20693;-70
2023/07/05 07:17:09;;;;;;;5.20;2.35;;;;;;;31.56;82.78;99996.97;5073296;28;20565;-70
2023/07/05 07:19:36;;;;;;;4.40;1.85;;;;;;;31.53;85.68;99990.97;5073299;28;20194;-71
2023/07/05 07:22:05;;;;;;;4.20;2.03;;;;;;;31.99;83.02;99999.16;5073006;28;20207;-69
2023/07/05 07:24:32;;;;;;;5.28;2.90;;;;;;;31.80;75.72;99997.84;5072501;28;20198;-70
2023/07/05 07:27:00;;;;;;;4.18;1.92;;;;;;;32.12;74.89;99994.63;5073072;28;20205;-70
2023/07/05 07:29:27;;;;;;;3.97;1.85;;;;;;;31.84;75.19;100002.00;5073078;28;20194;-70
2023/07/05 07:31:53;;;;;;;3.88;1.80;;;;;;;31.81;73.17;100007.63;5073007;28;20198;-70
2023/07/05 07:34:20;;;;;;;4.78;2.08;;;;;;;31.41;76.10;99972.09;5073122;28;20190;-69
2023/07/05 07:36:47;;;;;;;5.50;2.35;;;;;;;31.74;76.37;99989.41;5073062;28;20202;-70
2023/07/05 07:39:15;;;;;;;4.43;2.00;;;;;;;31.90;75.49;99998.00;5072954;28;20198;-70
2023/07/05 07:41:42;;;;;;;5.80;2.13;;;;;;;31.54;79.00;99947.97;5072939;28;20213;-70
2023/07/05 07:44:11;;;;;;;5.18;2.05;;;;;;;32.33;77.08;100004.59;5072925;28;20234;-70
2023/07/05 07:46:40;;;;;;;6.20;2.65;;;;;;;32.50;75.93;100007.81;5072820;28;20205;-70
2023/07/05 07:49:08;;;;;;;4.22;1.77;;;;;;;32.65;74.39;99998.59;5072521;28;20213;-70
2023/07/05 07:51:37;;;;;;;4.20;1.90;;;;;;;32.89;74.82;100007.44;5072661;28;20199;-70
2023/07/05 07:54:04;;;;;;;5.18;2.10;;;;;;;32.56;73.52;99984.03;5054284;28;20202;-71
2023/07/05 07:56:31;;;;;;;4.88;2.38;;;;;;;32.64;73.31;100013.84;5037155;28;20557;-69
2023/07/05 07:58:58;;;;;;;6.63;2.22;;;;;;;32.38;74.26;100017.66;5072628;28;20233;-71
2023/07/05 08:01:28;;;;;;;5.68;2.05;;;;;;;32.32;75.55;100010.91;5072452;28;20201;-70
2023/07/05 08:03:58;;;;;;;5.55;2.17;;;;;;;32.24;75.52;99996.38;5072321;28;20652;-70
2023/07/05 08:06:30;;;;;;;4.63;1.88;;;;;;;32.54;73.19;100003.91;5072416;28;20599;-69
2023/07/05 08:08:57;;;;;;;5.20;1.92;;;;;;;32.44;72.98;100006.44;5072312;28;20194;-69
2023/07/05 08:11:24;;;;;;;3.25;1.75;;;;;;;32.66;69.46;100006.53;5072386;28;20209;-70
2023/07/05 08:13:51;;;;;;;4.65;2.13;;;;;;;32.33;71.19;99987.63;5072154;28;20198;-70
2023/07/05 08:16:18;;;;;;;4.53;1.85;;;;;;;32.15;64.42;99999.75;5072418;28;20197;-69
2023/07/05 08:18:47;;;;;;;5.65;2.15;;;;;;;32.13;65.93;100005.25;5072200;28;20351;-70
2023/07/05 08:21:14;;;;;;;4.72;1.92;;;;;;;32.14;63.34;100006.09;5072181;28;20202;-69
2023/07/05 08:23:41;;;;;;;5.78;2.22;;;;;;;32.19;68.24;100002.09;5071951;28;20694;-70
2023/07/05 08:26:08;;;;;;;4.82;1.92;;;;;;;32.62;67.56;100009.56;5071990;28;20198;-78
2023/07/05 08:28:35;;;;;;;5.32;2.10;;;;;;;32.72;62.36;100014.13;5072051;28;20205;-78
2023/07/05 08:31:04;;;;;;;5.32;2.10;;;;;;;32.86;61.34;100016.56;5053278;28;20279;-77
2023/07/05 08:33:32;;;;;;;4.90;1.90;;;;;;;32.93;62.47;100012.44;5072092;28;20205;-76
2023/07/05 08:36:11;;;;;;;5.13;2.10;;;;;;;33.14;61.66;100017.16;5070990;28;20198;-77
2023/07/05 08:38:43;;;;;;;8.45;3.25;;;;;;;32.90;62.43;100010.00;5071857;28;20683;-77
2023/07/05 08:41:21;;;;;;;5.75;2.25;;;;;;;32.91;67.50;99975.94;5071899;28;20251;-76
2023/07/05 08:43:56;;;;;;;5.43;2.17;;;;;;;33.40;63.63;99994.38;5071498;28;20230;-77
2023/07/05 08:46:24;;;;;;;5.72;2.20;;;;;;;32.74;59.93;99997.91;5071579;28;20194;-71
2023/07/05 08:49:00;;;;;;;5.80;2.15;;;;;;;32.89;66.11;99994.00;5071676;28;20312;-72
2023/07/05 08:51:31;;;;;;;5.95;2.03;;;;;;;32.79;63.60;100003.75;5071566;28;20603;-74
2023/07/05 08:54:04;;;;;;;6.50;2.33;;;;;;;32.91;62.36;99978.63;5071482;28;20557;-72
2023/07/05 08:56:35;;;;;;;5.53;2.03;;;;;;;32.92;65.69;99991.09;5068643;28;20202;-73
2023/07/05 08:59:08;;;;;;;5.43;2.05;;;;;;;33.25;63.74;100001.00;5070811;28;20279;-73
2023/07/05 09:01:40;;;;;;;7.35;2.45;;;;;;;33.15;61.12;99986.59;5070859;28;20206;-74
2023/07/05 09:04:12;;;;;;;6.15;2.17;;;;;;;33.10;62.82;99994.13;5069641;28;20711;-71
2023/07/05 09:06:54;;;;;;;6.28;2.15;;;;;;;33.08;63.74;99979.94;5052392;28;20194;-82
2023/07/05 09:09:31;;;;;;;5.72;2.38;;;;;;;33.10;61.49;99996.81;5070998;28;20202;-82
2023/07/05 09:12:13;;;;;;;7.60;2.42;;;;;;;33.37;63.03;99992.81;5071123;28;20233;-76
2023/07/05 09:15:12;;;;;;;6.38;2.17;;;;;;;33.00;65.08;99987.78;5071020;28;20244;-79
2023/07/05 09:17:51;;;;;;;8.13;2.45;;;;;;;32.90;64.68;99975.06;5051996;28;20201;-76
2023/07/05 09:20:32;;;;;;;4.15;1.67;;;;;;;33.12;64.80;99981.44;5070767;28;20194;-69
2023/07/05 09:23:08;;;;;;;5.80;2.05;;;;;;;32.93;61.20;99982.88;5070375;28;20226;-70
2023/07/05 09:25:39;;;;;;;5.07;1.75;;;;;;;32.94;61.02;99978.38;5062516;28;20199;-70
2023/07/05 09:28:25;;;;;;;7.47;2.30;;;;;;;32.81;60.17;99970.44;5054823;28;20268;-70
2023/07/05 09:30:53;;;;;;;7.88;2.92;;;;;;;32.86;59.52;99973.59;5058203;28;20291;-70
2023/07/05 09:33:23;;;;;;;5.82;1.83;;;;;;;32.88;61.53;99973.50;5057770;28;20626;-70
2023/07/05 09:35:51;;;;;;;8.77;2.65;;;;;;;32.84;61.23;99977.38;5060102;28;20234;-69
2023/07/05 09:38:29;;;;;;;6.20;2.00;;;;;;;32.95;59.85;99974.72;5059461;28;20206;-69
2023/07/05 09:41:01;;;;;;;9.00;2.35;;;;;;;32.85;56.22;99955.78;5033024;28;20217;-69
2023/07/05 09:43:30;;;;;;;6.60;2.03;;;;;;;33.04;55.24;99973.09;5057693;28;20268;-72
2023/07/05 09:46:00;;;;;;;8.45;2.75;;;;;;;32.83;55.28;99963.09;5069095;28;20205;-70
2023/07/05 09:48:30;;;;;;;3.72;1.92;;;;;;;33.04;56.83;99967.72;5067136;28;20206;-68
2023/07/05 09:51:03;;;;;;;3.40;1.77;;;;;;;33.39;53.69;99957.75;5068253;28;20284;-68
2023/07/05 09:53:52;;;;;;;2.92;1.67;;;;;;;33.66;54.83;99949.25;5062724;28;20198;-69
2023/07/05 09:56:27;;;;;;;3.42;1.98;;;;;;;33.80;52.26;99946.28;5049417;28;20260;-74
2023/07/05 09:59:08;;;;;;;3.80;2.08;;;;;;;33.60;52.34;99947.06;5043432;28;20515;-69
2023/07/05 10:01:37;;;;;;;1.95;1.48;;;;;;;33.57;50.76;99950.00;5064954;28;20202;-69
2023/07/05 10:04:05;;;;;;;2.22;1.70;;;;;;;33.50;51.24;99952.31;5062446;28;20250;-69
2023/07/05 10:06:33;;;;;;;3.60;1.88;;;;;;;33.39;49.44;99936.22;5058875;28;20202;-68
2023/07/05 10:09:11;;;;;;;2.72;1.63;;;;;;;33.59;48.99;99948.88;5069394;28;20284;-68
2023/07/05 10:11:43;;;;;;;2.15;1.60;;;;;;;33.59;48.76;99948.88;5067623;28;20197;-69
2023/07/05 10:14:15;;;;;;;2.60;1.80;;;;;;;33.48;49.60;99945.38;5068827;28;20635;-69
2023/07/05 10:16:48;;;;;;;2.78;1.83;;;;;;;33.62;49.99;99940.59;5069239;28;20198;-68
2023/07/05 10:19:39;;;;;;;2.08;1.70;;;;;;;33.75;47.60;99921.59;5066986;28;20230;-67
2023/07/05 10:22:08;;;;;;;1.63;1.38;;;;;;;33.80;47.14;99947.13;5018833;28;20275;-67
2023/07/05 10:24:45;;;;;;;2.05;1.58;;;;;;;33.71;48.10;99934.44;5014508;28;20768;-67
2023/07/05 10:27:27;;;;;;;1.92;1.50;;;;;;;33.69;48.84;99932.88;5017602;28;20208;-68
2023/07/05 10:30:00;;;;;;;2.85;1.70;;;;;;;33.60;49.12;99929.09;5008081;28;20196;-68
2023/07/05 10:32:27;;;;;;;2.78;2.05;;;;;;;33.41;48.45;99923.50;5009953;28;20663;-69
2023/07/05 10:34:55;;;;;;;2.92;1.80;;;;;;;33.61;49.84;99929.91;5027394;28;20659;-68
2023/07/05 10:37:31;;;;;;;2.40;1.58;;;;;;;33.60;49.95;99921.03;5016160;28;20208;-68
2023/07/05 10:40:04;;;;;;;3.22;1.95;;;;;;;33.74;48.64;99917.22;5007979;28;20204;-71
2023/07/05 10:42:32;;;;;;;4.50;2.42;;;;;;;33.83;48.03;99919.13;5007705;28;20208;-68
2023/07/05 10:45:02;;;;;;;3.33;2.42;;;;;;;33.53;48.19;99917.13;5027114;28;20652;-68
2023/07/05 10:47:30;;;;;;;3.42;2.00;;;;;;;33.55;49.46;99920.53;5027224;28;20199;-69
2023/07/05 10:50:04;;;;;;;3.25;1.88;;;;;;;34.04;49.30;99920.00;5007825;28;20196;-68
2023/07/05 10:52:34;;;;;;;3.10;1.83;;;;;;;34.20;47.35;99917.75;5008218;28;20278;-69
2023/07/05 10:55:07;;;;;;;2.65;1.70;;;;;;;33.78;48.63;99916.81;5007419;28;20208;-68
2023/07/05 10:57:37;;;;;;;3.35;1.83;;;;;;;33.45;48.38;99903.47;5007508;28;20208;-69
2023/07/05 11:00:13;;;;;;;2.70;1.55;;;;;;;33.51;48.41;99912.84;5047362;28;20219;-68
2023/07/05 11:02:46;;;;;;;1.50;1.40;;;;;;;33.61;48.89;99901.19;5035100;28;20642;-68
2023/07/05 11:05:23;;;;;;;1.50;1.40;;;;;;;33.85;47.87;99907.22;5072902;28;20271;-68
2023/07/05 11:07:53;;;;;;;1.40;1.30;;;;;;;33.67;48.62;99906.13;5038195;28;20202;-68
2023/07/05 11:10:22;;;;;;;1.30;1.25;;;;;;;33.36;48.10;99899.69;5072754;28;20255;-68
2023/07/05 11:12:49;;;;;;;1.60;1.50;;;;;;;33.56;47.96;99900.75;5072964;28;20206;-68
2023/07/05 11:15:21;;;;;;;1.80;1.70;;;;;;;33.86;47.43;99897.31;5072971;28;20230;-68
2023/07/05 11:17:49;;;;;;;1.08;1.08;;;;;;;33.99;47.42;99886.41;5038350;28;20194;-69
2023/07/05 11:20:44;;;;;;;1.20;1.20;;;;;;;34.03;46.96;99894.09;5072528;28;20232;-68
2023/07/05 11:23:13;;;;;;;1.30;1.20;;;;;;;34.03;47.84;99894.09;5072784;28;20263;-68
2023/07/05 11:26:01;;;;;;;1.50;1.40;;;;;;;33.92;47.84;99869.94;5068150;28;20234;-68
2023/07/05 11:28:32;;;;;;;1.45;1.35;;;;;;;34.14;47.05;99901.28;5070193;28;20213;-68
2023/07/05 11:30:59;;;;;;;4.10;3.53;;;;;;;34.12;46.00;99892.44;5072045;28;20732;-68
2023/07/05 11:33:26;;;;;;;1.30;1.25;;;;;;;33.91;45.57;99892.44;5072239;28;20205;-68
2023/07/05 11:35:55;;;;;;;1.65;1.55;;;;;;;33.84;44.58;99884.03;5072251;28;20201;-67
2023/07/05 11:39:07;;;;;;;2.22;2.03;;;;;;;34.06;43.01;99892.97;5071790;28;20201;-66
2023/07/05 11:41:40;;;;;;;1.48;1.38;;;;;;;34.03;43.98;99893.22;5069888;28;20264;-67